Terminal Aerodrome Forecast
Issued by NWS

Home | Current Version | Previous Version | Text Only | Print | Product List | Glossary On
Versions: 1 2 3 4 5 6 7 8 9 10 11 12 13 14 15 16
000
FTUS45 KRIW 270541
TAFRKS
TAF
KRKS 270541Z 2706/2806 15007KT P6SM SCT050
     FM271400 27009KT P6SM VCSH SCT025 BKN040
     FM271700 25013KT 3SM -SN SCT015 OVC025
     FM272200 27015KT 4SM -SHSN BKN018 OVC030
     FM280500 27013KT P6SM SCT030 BKN050=

USA.gov is the U.S. government's official web portal to all federal, state and local government web resources and services.